Time;durP1;ratioP1;P1;durP2;ratioP2;P2;SDS_P1;SDS_P2;PMS_P1;PMS_P2;Temp;Humidity;BMP_temperature;BMP_pressure;BME280_temperature;BME280_humidity;BME280_pressure;Samples;Min_cycle;Max_cycle;Signal;HPM_P1;HPM_P2
2023/11/17 00:02:20;;;;;;;5.90;3.53;;;8.40;99.90;;;;;;5052109;28;20438;-74
2023/11/17 00:05:07;;;;;;;5.97;3.97;;;8.40;99.90;;;;;;5056218;28;20517;-75
2023/11/17 00:07:54;;;;;;;5.17;4.00;;;8.40;99.90;;;;;;5054756;28;20478;-76
2023/11/17 00:10:41;;;;;;;5.87;4.00;;;8.30;99.90;;;;;;5050130;28;20988;-75
2023/11/17 00:13:27;;;;;;;6.57;4.53;;;8.30;99.90;;;;;;5055933;28;20456;-75
2023/11/17 00:16:13;;;;;;;7.47;4.17;;;8.40;99.90;;;;;;5052934;28;20972;-75
2023/11/17 00:19:00;;;;;;;7.03;4.63;;;8.40;99.90;;;;;;5054755;28;20472;-75
2023/11/17 00:21:45;;;;;;;6.70;4.23;;;8.40;99.90;;;;;;5048923;28;20449;-75
2023/11/17 00:24:31;;;;;;;6.30;4.23;;;8.50;99.90;;;;;;5050291;28;20966;-74
2023/11/17 00:27:18;;;;;;;8.53;5.57;;;8.50;99.90;;;;;;5051244;28;21689;-75
2023/11/17 00:30:05;;;;;;;6.50;5.10;;;8.50;99.90;;;;;;5053503;28;20988;-74
2023/11/17 00:32:51;;;;;;;11.20;5.17;;;8.60;99.90;;;;;;5050817;28;21024;-73
2023/11/17 00:35:37;;;;;;;8.53;5.30;;;8.60;99.90;;;;;;5049304;28;20483;-73
2023/11/17 00:38:22;;;;;;;6.53;5.77;;;8.50;99.90;;;;;;5052301;28;20592;-74
2023/11/17 00:41:09;;;;;;;8.10;5.37;;;8.40;99.90;;;;;;5051575;28;20437;-73
2023/11/17 00:43:57;;;;;;;10.87;6.20;;;8.40;99.90;;;;;;5051231;28;20433;-74
2023/11/17 00:46:43;;;;;;;8.10;5.40;;;8.50;99.90;;;;;;5045359;28;20819;-73
2023/11/17 00:49:28;;;;;;;7.87;5.23;;;8.40;99.90;;;;;;5042663;28;20560;-73
2023/11/17 00:52:14;;;;;;;8.60;4.40;;;8.30;99.90;;;;;;5047221;28;20815;-73
2023/11/17 00:55:04;;;;;;;4.93;3.80;;;8.40;99.90;;;;;;5050805;28;20444;-74
2023/11/17 00:57:50;;;;;;;5.93;3.80;;;8.30;99.90;;;;;;5043137;28;20476;-74
2023/11/17 01:00:37;;;;;;;8.60;4.13;;;8.30;99.90;;;;;;5045442;28;20446;-75
2023/11/17 01:03:23;;;;;;;7.90;3.80;;;8.30;99.90;;;;;;5050251;28;20487;-74
2023/11/17 01:06:09;;;;;;;6.77;3.90;;;8.30;99.90;;;;;;5064673;28;20494;-72
2023/11/17 01:08:55;;;;;;;7.73;3.67;;;8.30;99.90;;;;;;5069801;28;20484;-72
2023/11/17 01:11:41;;;;;;;5.77;3.77;;;8.30;99.90;;;;;;5071288;28;20499;-72
2023/11/17 01:14:27;;;;;;;6.47;3.70;;;8.30;99.90;;;;;;5069199;28;20498;-74
2023/11/17 01:17:14;;;;;;;5.50;3.67;;;8.10;99.90;;;;;;5053336;28;20447;-74
2023/11/17 01:20:00;;;;;;;10.63;4.67;;;8.10;99.90;;;;;;5054124;28;20447;-75
2023/11/17 01:22:45;;;;;;;10.83;4.80;;;8.00;99.90;;;;;;5050578;28;20449;-75
2023/11/17 01:25:33;;;;;;;6.30;5.13;;;8.00;99.90;;;;;;5052215;28;20467;-75
2023/11/17 01:28:18;;;;;;;6.23;4.90;;;8.10;99.90;;;;;;5048140;28;20474;-73
2023/11/17 01:31:04;;;;;;;10.77;5.27;;;8.10;99.90;;;;;;5057738;28;20929;-75
2023/11/17 01:33:51;;;;;;;8.83;6.43;;;8.00;99.90;;;;;;5049799;28;20818;-75
2023/11/17 01:36:37;;;;;;;11.27;5.23;;;7.90;99.90;;;;;;5046845;28;20638;-74
2023/11/17 01:39:23;;;;;;;8.83;5.73;;;8.00;99.90;;;;;;5054317;28;20469;-75
2023/11/17 01:42:08;;;;;;;9.90;6.00;;;8.10;99.90;;;;;;5053284;28;20961;-75
2023/11/17 01:44:55;;;;;;;10.47;6.47;;;8.10;99.90;;;;;;5051433;28;20455;-75
2023/11/17 01:47:42;;;;;;;9.93;6.03;;;8.10;99.90;;;;;;5052949;28;20594;-75
2023/11/17 01:50:30;;;;;;;12.83;7.47;;;8.10;99.90;;;;;;5052215;28;20471;-75
2023/11/17 01:53:17;;;;;;;17.87;7.40;;;8.10;99.90;;;;;;5054358;28;20418;-74
2023/11/17 01:56:04;;;;;;;13.47;7.40;;;8.10;99.90;;;;;;5057671;28;20467;-75
2023/11/17 01:58:50;;;;;;;15.63;7.83;;;8.10;99.90;;;;;;5049712;28;20570;-75
2023/11/17 02:01:36;;;;;;;11.00;7.37;;;8.10;99.90;;;;;;5046404;28;20440;-75
2023/11/17 02:04:22;;;;;;;16.67;8.47;;;8.30;99.90;;;;;;5052100;28;20606;-75
2023/11/17 02:07:15;;;;;;;12.57;8.63;;;8.20;99.90;;;;;;5058241;28;20505;-74
2023/11/17 02:10:08;;;;;;;12.70;8.50;;;8.10;99.90;;;;;;5053556;28;20491;-75
2023/11/17 02:13:01;;;;;;;15.40;9.00;;;8.10;99.90;;;;;;5056161;28;20432;-75
2023/11/17 02:15:50;;;;;;;13.13;8.50;;;8.10;99.90;;;;;;5042676;28;20813;-75
2023/11/17 02:18:37;;;;;;;11.57;8.80;;;8.10;99.90;;;;;;5046212;28;21006;-75
2023/11/17 02:21:31;;;;;;;18.47;8.80;;;8.10;99.90;;;;;;5048205;28;20448;-75
2023/11/17 02:24:19;;;;;;;19.47;9.30;;;8.10;99.90;;;;;;5049064;28;20961;-75
2023/11/17 02:27:19;;;;;;;14.77;10.23;;;8.10;99.90;;;;;;5058642;28;20433;-75
2023/11/17 02:30:08;;;;;;;12.80;9.63;;;8.10;99.90;;;;;;5058473;28;20607;-75
2023/11/17 02:32:55;;;;;;;17.73;10.13;;;8.10;99.90;;;;;;5055819;28;20726;-75
2023/11/17 02:35:43;;;;;;;19.90;9.10;;;8.10;99.90;;;;;;5049374;28;20425;-75
2023/11/17 02:38:30;;;;;;;21.90;10.87;;;8.10;99.90;;;;;;5058016;28;20568;-75
2023/11/17 02:41:28;;;;;;;21.87;10.57;;;8.10;99.90;;;;;;5057382;28;20425;-75
2023/11/17 02:44:15;;;;;;;17.80;9.13;;;8.20;99.90;;;;;;5064807;28;21067;-75
2023/11/17 02:47:04;;;;;;;13.60;9.63;;;8.20;99.90;;;;;;5059991;28;20428;-75
2023/11/17 02:49:53;;;;;;;16.87;9.20;;;8.20;99.90;;;;;;5054731;28;20469;-75
2023/11/17 02:53:00;;;;;;;16.70;10.70;;;8.30;99.90;;;;;;5049698;28;20429;-75
2023/11/17 02:55:46;;;;;;;17.97;10.30;;;8.30;99.90;;;;;;5052889;28;20424;-74
2023/11/17 02:58:34;;;;;;;18.27;12.50;;;8.30;99.90;;;;;;5055254;28;20873;-74
2023/11/17 03:01:19;;;;;;;17.90;10.87;;;8.20;99.90;;;;;;5054776;28;20423;-74
2023/11/17 03:04:13;;;;;;;15.70;12.07;;;8.20;99.90;;;;;;5058243;28;20431;-74
2023/11/17 03:07:01;;;;;;;20.17;13.30;;;8.20;99.90;;;;;;5061358;28;20430;-73
2023/11/17 03:09:51;;;;;;;18.00;12.43;;;8.20;99.90;;;;;;5052003;28;20437;-74
2023/11/17 03:12:37;;;;;;;21.03;14.00;;;8.10;99.90;;;;;;5059677;28;20424;-73
2023/11/17 03:15:24;;;;;;;17.37;12.20;;;8.10;99.90;;;;;;5060895;28;20509;-73
2023/11/17 03:18:09;;;;;;;16.27;11.80;;;8.10;99.90;;;;;;5062292;28;20605;-75
2023/11/17 03:21:01;;;;;;;21.67;12.30;;;8.10;99.90;;;;;;5059411;28;20424;-74
2023/11/17 03:23:50;;;;;;;17.73;11.50;;;8.20;99.90;;;;;;5062967;28;20457;-74
2023/11/17 03:26:36;;;;;;;13.47;9.40;;;8.20;99.90;;;;;;5050225;28;20496;-74
2023/11/17 03:29:23;;;;;;;17.33;10.43;;;8.20;99.90;;;;;;5059436;28;20456;-74
2023/11/17 03:32:11;;;;;;;12.37;9.07;;;8.20;99.90;;;;;;5062576;28;20506;-74
2023/11/17 03:34:57;;;;;;;16.93;9.73;;;8.20;99.90;;;;;;5059220;28;20424;-74
2023/11/17 03:37:46;;;;;;;14.43;9.23;;;8.20;99.90;;;;;;5055334;28;21040;-73
2023/11/17 03:40:35;;;;;;;15.47;9.70;;;8.10;99.90;;;;;;5060023;28;20467;-73
2023/11/17 03:43:21;;;;;;;16.03;9.70;;;8.10;99.90;;;;;;5055989;28;20405;-75
2023/11/17 03:46:07;;;;;;;14.27;11.33;;;8.10;99.90;;;;;;5063902;28;20432;-76
2023/11/17 03:48:53;;;;;;;12.83;9.97;;;8.10;99.90;;;;;;5059777;28;20510;-75
2023/11/17 03:51:38;;;;;;;16.33;9.43;;;8.10;99.90;;;;;;5057779;28;20467;-75
2023/11/17 03:54:26;;;;;;;13.80;9.70;;;8.10;99.90;;;;;;5066317;28;20423;-75
2023/11/17 03:57:12;;;;;;;15.93;8.27;;;8.10;99.90;;;;;;5064750;28;20431;-73
2023/11/17 03:59:59;;;;;;;18.97;10.80;;;8.00;99.90;;;;;;5055741;28;20436;-75
2023/11/17 04:02:45;;;;;;;20.83;10.17;;;8.00;99.90;;;;;;5057724;28;20424;-75
2023/11/17 04:05:30;;;;;;;18.27;9.83;;;8.00;99.90;;;;;;5061737;28;20427;-74
2023/11/17 04:08:17;;;;;;;23.87;11.47;;;8.10;99.90;;;;;;5061869;28;20632;-75
2023/11/17 04:11:04;;;;;;;13.43;10.33;;;8.00;99.90;;;;;;5063011;28;20480;-74
2023/11/17 04:13:50;;;;;;;16.43;10.50;;;8.20;99.90;;;;;;5058680;28;20681;-75
2023/11/17 04:16:37;;;;;;;18.20;11.77;;;8.10;99.90;;;;;;5056272;28;20424;-76
2023/11/17 04:19:23;;;;;;;13.17;10.40;;;8.20;99.90;;;;;;5061979;28;20453;-75
2023/11/17 04:22:09;;;;;;;16.87;10.53;;;8.20;99.90;;;;;;5066014;28;20558;-74
2023/11/17 04:24:55;;;;;;;16.40;11.30;;;8.20;99.90;;;;;;5058581;28;20425;-74
2023/11/17 04:27:42;;;;;;;12.40;9.50;;;8.20;99.90;;;;;;5055739;28;20448;-74
2023/11/17 04:30:28;;;;;;;16.93;10.20;;;8.10;99.90;;;;;;5059552;28;20466;-74
2023/11/17 04:33:14;;;;;;;14.07;9.50;;;8.20;99.90;;;;;;5057731;28;20425;-74
2023/11/17 04:36:00;;;;;;;15.47;10.00;;;8.20;99.90;;;;;;5058202;28;20431;-74
2023/11/17 04:38:46;;;;;;;14.27;10.20;;;8.10;99.90;;;;;;5051250;28;20463;-74
2023/11/17 04:41:31;;;;;;;21.35;11.35;;;8.10;99.90;;;;;;5056519;28;20498;-74
2023/11/17 04:44:18;;;;;;;21.23;11.00;;;8.10;99.90;;;;;;5056491;28;20255;-73
2023/11/17 04:47:04;;;;;;;17.10;10.10;;;8.10;99.90;;;;;;5058926;28;20463;-74
2023/11/17 04:49:50;;;;;;;17.43;10.03;;;8.10;99.90;;;;;;5052884;28;20611;-74
2023/11/17 04:52:35;;;;;;;14.00;11.10;;;8.10;99.90;;;;;;5051563;28;20428;-73
2023/11/17 04:55:21;;;;;;;15.50;10.97;;;8.00;99.90;;;;;;5055513;28;20213;-73
2023/11/17 04:58:07;;;;;;;20.20;11.75;;;8.10;99.90;;;;;;5055536;28;20467;-74
2023/11/17 05:00:54;;;;;;;17.70;9.60;;;8.10;99.90;;;;;;5048086;28;20340;-73
2023/11/17 05:03:40;;;;;;;12.03;10.40;;;8.10;99.90;;;;;;5047177;28;20970;-73
2023/11/17 05:06:27;;;;;;;19.53;10.90;;;8.10;99.90;;;;;;5049150;28;20456;-73
2023/11/17 05:09:13;;;;;;;15.70;9.50;;;8.10;99.90;;;;;;5057881;28;20472;-74
2023/11/17 05:11:59;;;;;;;19.63;11.83;;;8.10;99.90;;;;;;5058045;28;20475;-74
2023/11/17 05:14:45;;;;;;;16.13;10.80;;;8.00;99.90;;;;;;5059951;28;20434;-74
2023/11/17 05:17:43;;;;;;;14.27;10.80;;;8.10;99.90;;;;;;5053292;28;20471;-74
2023/11/17 05:20:28;;;;;;;16.53;11.33;;;8.00;99.90;;;;;;5059835;28;20460;-74
2023/11/17 05:23:16;;;;;;;16.20;11.90;;;8.00;99.90;;;;;;5061860;28;20430;-74
2023/11/17 05:26:01;;;;;;;27.53;13.40;;;8.00;99.90;;;;;;5057133;28;20213;-74
2023/11/17 05:28:47;;;;;;;13.70;11.23;;;8.00;99.90;;;;;;5052688;28;20460;-74
2023/11/17 05:31:33;;;;;;;22.80;12.43;;;8.00;99.90;;;;;;5060149;28;20609;-74
2023/11/17 05:34:20;;;;;;;17.60;12.00;;;8.00;99.90;;;;;;5059908;28;20803;-74
2023/11/17 05:37:05;;;;;;;24.23;11.97;;;8.00;99.90;;;;;;5061662;28;20447;-74
2023/11/17 05:39:51;;;;;;;19.27;11.20;;;8.00;99.90;;;;;;5057007;28;20432;-74
2023/11/17 05:42:37;;;;;;;19.40;12.77;;;8.00;99.90;;;;;;5053600;28;20426;-74
2023/11/17 05:45:23;;;;;;;20.47;12.63;;;8.00;99.90;;;;;;5062009;28;20510;-74
2023/11/17 05:48:10;;;;;;;15.63;12.50;;;8.10;99.90;;;;;;5062342;28;21013;-74
2023/11/17 05:50:57;;;;;;;16.03;12.70;;;8.20;99.90;;;;;;5059995;28;20832;-75
2023/11/17 05:53:43;;;;;;;19.37;12.80;;;8.30;99.90;;;;;;5056331;28;20452;-75
2023/11/17 05:56:29;;;;;;;14.63;10.97;;;8.30;99.90;;;;;;5062738;28;20495;-74
2023/11/17 05:59:15;;;;;;;19.40;12.40;;;8.30;99.90;;;;;;5057514;28;20454;-74
2023/11/17 06:02:03;;;;;;;24.47;11.87;;;8.20;99.90;;;;;;5062468;28;20470;-75
2023/11/17 06:04:49;;;;;;;15.80;10.97;;;8.20;99.90;;;;;;5057884;28;20499;-74
2023/11/17 06:07:36;;;;;;;20.07;11.93;;;8.30;99.90;;;;;;5061198;28;20447;-74
2023/11/17 06:10:21;;;;;;;16.70;12.80;;;8.30;99.90;;;;;;5060897;28;20415;-74
2023/11/17 06:13:07;;;;;;;17.20;11.20;;;8.20;99.90;;;;;;5061840;28;20904;-74
2023/11/17 06:15:53;;;;;;;13.70;10.50;;;8.30;99.90;;;;;;5046446;28;21075;-74
2023/11/17 06:18:39;;;;;;;19.90;12.50;;;8.20;99.90;;;;;;5053876;28;20545;-74
2023/11/17 06:21:26;;;;;;;17.23;12.30;;;8.20;99.90;;;;;;5055827;28;20428;-74
2023/11/17 06:24:14;;;;;;;18.93;13.00;;;8.20;99.90;;;;;;5061306;28;20482;-74
2023/11/17 06:27:00;;;;;;;20.40;13.47;;;8.20;99.90;;;;;;5055150;28;20453;-73
2023/11/17 06:29:46;;;;;;;20.03;13.40;;;8.30;99.90;;;;;;5049865;28;20463;-73
2023/11/17 06:32:32;;;;;;;19.27;14.67;;;8.30;99.90;;;;;;5044638;28;20464;-74
2023/11/17 06:35:17;;;;;;;18.60;11.70;;;8.30;99.90;;;;;;5049175;28;20446;-73
2023/11/17 06:38:03;;;;;;;16.60;12.33;;;8.30;99.90;;;;;;5056192;28;20462;-74
2023/11/17 06:40:51;;;;;;;18.23;12.93;;;8.30;99.90;;;;;;5050260;28;20435;-74
2023/11/17 06:43:37;;;;;;;17.23;11.70;;;8.30;99.90;;;;;;5054108;28;20447;-73
2023/11/17 06:46:23;;;;;;;13.60;11.73;;;8.20;99.90;;;;;;5055648;28;21028;-74
2023/11/17 06:49:10;;;;;;;16.70;11.83;;;8.20;99.90;;;;;;5058312;28;20522;-73
2023/11/17 06:51:55;;;;;;;18.80;11.45;;;8.20;99.90;;;;;;5062869;28;20565;-74
2023/11/17 06:54:43;;;;;;;16.63;11.60;;;8.10;99.90;;;;;;5060600;28;20231;-73
2023/11/17 06:57:32;;;;;;;17.92;12.27;;;8.10;99.90;;;;;;5053839;28;20460;-74
2023/11/17 07:00:17;;;;;;;19.70;12.10;;;8.00;99.90;;;;;;5062285;28;20212;-74
2023/11/17 07:03:03;;;;;;;21.37;11.50;;;8.00;99.90;;;;;;5062869;28;20801;-74
2023/11/17 07:05:49;;;;;;;18.90;11.67;;;8.00;99.90;;;;;;5066310;28;20462;-74
2023/11/17 07:08:35;;;;;;;17.15;12.00;;;8.10;99.90;;;;;;5052790;28;20843;-74
2023/11/17 07:11:21;;;;;;;19.97;13.30;;;8.10;99.90;;;;;;5064025;28;20224;-74
2023/11/17 07:14:07;;;;;;;14.23;10.93;;;8.20;99.90;;;;;;5062776;28;20448;-74
2023/11/17 07:16:54;;;;;;;16.60;11.70;;;8.20;99.90;;;;;;5060332;28;20445;-74
2023/11/17 07:19:41;;;;;;;18.83;11.73;;;8.30;99.90;;;;;;5054182;28;20506;-74
2023/11/17 07:22:27;;;;;;;13.77;10.30;;;8.40;99.90;;;;;;5064165;28;20444;-74
2023/11/17 07:25:13;;;;;;;17.00;10.63;;;8.50;99.90;;;;;;5076266;28;20439;-73
2023/11/17 07:27:59;;;;;;;16.20;10.63;;;8.40;99.90;;;;;;5078123;28;21000;-73
2023/11/17 07:30:46;;;;;;;17.60;10.53;;;8.40;99.90;;;;;;5074751;28;20459;-73
2023/11/17 07:33:32;;;;;;;18.30;10.87;;;8.40;99.90;;;;;;5061666;28;20467;-74
2023/11/17 07:36:18;;;;;;;15.47;11.70;;;8.40;99.90;;;;;;5062568;28;20446;-74
2023/11/17 07:39:04;;;;;;;18.37;10.83;;;8.40;99.90;;;;;;5063439;28;20474;-74
2023/11/17 07:41:49;;;;;;;18.47;11.60;;;8.50;99.90;;;;;;5055338;28;20421;-74
2023/11/17 07:44:36;;;;;;;18.97;11.20;;;8.50;99.90;;;;;;5057371;28;21002;-74
2023/11/17 07:47:24;;;;;;;14.77;11.37;;;8.50;99.90;;;;;;5066970;28;20451;-74
2023/11/17 07:50:13;;;;;;;14.70;10.30;;;8.50;99.90;;;;;;5065968;28;20447;-73
2023/11/17 07:52:59;;;;;;;19.07;9.70;;;8.50;99.90;;;;;;5056233;28;20480;-74
2023/11/17 07:55:45;;;;;;;14.43;9.80;;;8.50;99.90;;;;;;5061728;28;20511;-74
2023/11/17 07:58:31;;;;;;;18.83;10.43;;;8.60;99.90;;;;;;5052769;28;20594;-74
2023/11/17 08:01:17;;;;;;;13.67;9.80;;;8.50;99.90;;;;;;5061422;28;20444;-74
2023/11/17 08:04:05;;;;;;;14.20;9.30;;;8.40;99.90;;;;;;5052751;28;20450;-74
2023/11/17 08:06:52;;;;;;;15.50;10.37;;;8.40;99.90;;;;;;5054034;28;20803;-74
2023/11/17 08:09:39;;;;;;;14.60;10.80;;;8.30;99.90;;;;;;5053712;28;20418;-74
2023/11/17 08:12:25;;;;;;;14.40;9.77;;;8.30;99.90;;;;;;5055766;28;20505;-74
2023/11/17 08:15:11;;;;;;;14.37;10.00;;;8.30;99.90;;;;;;5053472;28;21107;-75
2023/11/17 08:17:57;;;;;;;16.83;11.27;;;8.20;99.90;;;;;;5056974;28;20481;-75
2023/11/17 08:20:45;;;;;;;16.43;11.23;;;8.10;99.90;;;;;;5057771;28;20937;-75
2023/11/17 08:23:31;;;;;;;16.00;11.33;;;8.10;99.90;;;;;;5056246;28;20449;-75
2023/11/17 08:26:18;;;;;;;17.57;11.90;;;8.10;99.90;;;;;;5058916;28;20447;-75
2023/11/17 08:29:04;;;;;;;17.17;11.90;;;8.20;99.90;;;;;;5064256;28;20492;-75
2023/11/17 08:31:50;;;;;;;13.60;10.80;;;8.30;99.90;;;;;;5055057;28;20480;-75
2023/11/17 08:34:36;;;;;;;18.67;11.93;;;8.30;99.90;;;;;;5060976;28;21194;-75
2023/11/17 08:37:24;;;;;;;17.63;10.00;;;8.40;99.90;;;;;;5062701;28;20963;-75
2023/11/17 08:40:10;;;;;;;16.67;11.50;;;8.40;99.90;;;;;;5059170;28;20486;-75
2023/11/17 08:42:56;;;;;;;18.37;13.40;;;8.50;99.90;;;;;;5057298;28;20438;-75
2023/11/17 08:45:41;;;;;;;15.80;11.70;;;8.50;99.90;;;;;;5057913;28;20444;-75
2023/11/17 08:48:27;;;;;;;18.30;11.23;;;8.50;99.90;;;;;;5056020;28;20942;-73
2023/11/17 08:51:13;;;;;;;19.73;11.77;;;8.50;99.90;;;;;;5063578;28;20822;-74
2023/11/17 08:54:00;;;;;;;21.50;12.07;;;8.60;99.90;;;;;;5062810;28;20448;-75
2023/11/17 08:56:47;;;;;;;16.83;12.03;;;8.60;99.90;;;;;;5058787;28;20452;-75
2023/11/17 08:59:32;;;;;;;18.03;12.30;;;8.60;99.90;;;;;;5060557;28;20475;-75
2023/11/17 09:02:19;;;;;;;26.10;12.00;;;8.60;99.90;;;;;;5066666;28;20434;-74
2023/11/17 09:05:05;;;;;;;18.10;11.40;;;8.50;99.90;;;;;;5062081;28;20452;-75
2023/11/17 09:07:51;;;;;;;22.17;13.00;;;8.50;99.90;;;;;;5055612;28;20475;-75
2023/11/17 09:10:40;;;;;;;22.33;14.47;;;8.50;99.90;;;;;;5049137;28;20447;-76
2023/11/17 09:13:28;;;;;;;18.40;13.30;;;8.50;99.90;;;;;;5049356;28;20495;-75
2023/11/17 09:16:13;;;;;;;18.73;13.33;;;8.50;99.90;;;;;;5053120;28;20467;-74
2023/11/17 09:18:59;;;;;;;20.00;14.50;;;8.60;99.90;;;;;;5060895;28;20455;-75
2023/11/17 09:21:46;;;;;;;20.97;14.20;;;8.60;99.90;;;;;;5060422;28;20511;-75
2023/11/17 09:24:32;;;;;;;18.10;12.93;;;8.50;99.90;;;;;;5048848;28;20452;-75
2023/11/17 09:27:19;;;;;;;16.73;12.10;;;8.50;99.90;;;;;;5055391;28;20470;-74
2023/11/17 09:30:06;;;;;;;19.60;12.33;;;8.50;99.90;;;;;;5050020;28;20444;-74
2023/11/17 09:32:54;;;;;;;19.13;12.07;;;8.60;99.90;;;;;;5047909;28;20573;-75
2023/11/17 09:35:40;;;;;;;18.17;12.23;;;8.60;99.90;;;;;;5054411;28;20991;-75
2023/11/17 09:38:25;;;;;;;19.30;12.07;;;8.60;99.90;;;;;;5052454;28;20993;-75
2023/11/17 09:41:11;;;;;;;19.30;12.50;;;8.70;99.90;;;;;;5054862;28;20526;-75
2023/11/17 09:44:00;;;;;;;15.80;12.50;;;8.70;99.90;;;;;;5059530;28;20467;-75
2023/11/17 09:46:54;;;;;;;16.60;12.10;;;8.90;99.90;;;;;;5052674;28;20583;-75
2023/11/17 09:49:42;;;;;;;20.50;13.27;;;8.90;99.90;;;;;;5055614;28;20451;-74
2023/11/17 09:52:28;;;;;;;18.27;12.70;;;8.90;99.90;;;;;;5061043;28;20479;-74
2023/11/17 09:55:16;;;;;;;17.33;12.97;;;9.00;99.90;;;;;;5050027;28;20507;-74
2023/11/17 09:58:05;;;;;;;21.20;14.47;;;9.00;99.90;;;;;;5050962;28;20468;-74
2023/11/17 10:00:52;;;;;;;18.83;12.53;;;9.00;99.90;;;;;;5054062;28;20923;-74
2023/11/17 10:03:39;;;;;;;15.43;12.30;;;9.00;99.90;;;;;;5049372;28;20451;-74
2023/11/17 10:06:25;;;;;;;15.33;11.10;;;9.00;99.90;;;;;;5045934;28;20444;-74
2023/11/17 10:09:14;;;;;;;14.20;10.40;;;9.10;99.90;;;;;;5051527;28;21085;-74
2023/11/17 10:12:01;;;;;;;15.17;10.70;;;9.20;99.90;;;;;;5051715;28;20498;-74
2023/11/17 10:14:48;;;;;;;16.43;10.67;;;9.20;99.90;;;;;;5050519;28;20449;-74
2023/11/17 10:17:37;;;;;;;14.97;11.53;;;9.20;99.90;;;;;;5050648;28;20598;-74
2023/11/17 10:20:24;;;;;;;20.70;11.87;;;9.20;99.90;;;;;;5059422;28;20447;-74
2023/11/17 10:23:10;;;;;;;16.27;11.67;;;9.20;99.90;;;;;;5059278;28;20922;-75
2023/11/17 10:25:56;;;;;;;15.53;11.37;;;9.20;99.90;;;;;;5068431;28;20696;-75
2023/11/17 10:28:42;;;;;;;16.60;12.60;;;9.20;99.90;;;;;;5067979;28;20484;-73
2023/11/17 10:31:31;;;;;;;22.23;12.67;;;9.10;99.90;;;;;;5049240;28;20452;-75
2023/11/17 10:34:18;;;;;;;15.30;11.83;;;9.10;99.90;;;;;;5054939;28;20438;-75
2023/11/17 10:37:06;;;;;;;17.17;12.70;;;9.20;99.90;;;;;;5062518;28;20451;-75
2023/11/17 10:39:51;;;;;;;19.20;13.20;;;9.20;99.90;;;;;;5055946;28;20505;-74
2023/11/17 10:42:37;;;;;;;18.13;13.77;;;9.20;99.90;;;;;;5060711;28;20437;-74
2023/11/17 10:45:23;;;;;;;23.43;14.10;;;9.10;99.90;;;;;;5061210;28;20441;-75
2023/11/17 10:48:12;;;;;;;28.00;14.37;;;9.20;99.90;;;;;;5054565;28;20465;-75
2023/11/17 10:51:05;;;;;;;22.87;14.13;;;9.20;99.90;;;;;;5059328;28;20469;-74
2023/11/17 10:54:04;;;;;;;18.00;13.67;;;9.20;99.90;;;;;;5061054;28;20467;-75
2023/11/17 10:56:51;;;;;;;20.17;15.03;;;9.20;99.90;;;;;;5061431;28;20441;-74
2023/11/17 10:59:37;;;;;;;77.70;17.40;;;9.20;99.90;;;;;;5065077;28;20514;-75
2023/11/17 11:02:26;;;;;;;20.87;14.67;;;9.20;99.90;;;;;;5068996;28;20582;-75
2023/11/17 11:05:12;;;;;;;19.63;14.23;;;9.10;99.90;;;;;;5061642;28;20462;-75
2023/11/17 11:08:01;;;;;;;19.10;14.30;;;9.20;99.90;;;;;;5066734;28;21072;-75
2023/11/17 11:10:53;;;;;;;20.40;15.33;;;9.20;99.90;;;;;;5061504;28;20419;-75
2023/11/17 11:13:39;;;;;;;19.83;14.63;;;9.10;99.90;;;;;;5052671;28;20483;-75
2023/11/17 11:16:25;;;;;;;21.50;14.97;;;9.20;99.90;;;;;;5055400;28;20946;-74
2023/11/17 11:19:13;;;;;;;20.20;13.80;;;9.20;99.90;;;;;;5058306;28;20501;-75
2023/11/17 11:22:01;;;;;;;31.87;14.27;;;9.40;99.90;;;;;;5052848;28;20818;-73
2023/11/17 11:24:48;;;;;;;27.40;15.00;;;9.40;99.90;;;;;;5052522;28;20510;-75
2023/11/17 11:27:36;;;;;;;25.00;15.03;;;9.40;99.90;;;;;;5048111;28;20519;-75
2023/11/17 11:30:23;;;;;;;19.00;13.50;;;9.50;99.90;;;;;;5055204;28;20453;-75
2023/11/17 11:33:11;;;;;;;21.47;13.20;;;9.60;99.90;;;;;;5056363;28;20453;-74
2023/11/17 11:35:57;;;;;;;21.50;12.97;;;9.60;99.90;;;;;;5058662;28;20535;-75
2023/11/17 11:38:47;;;;;;;21.67;13.13;;;9.70;99.90;;;;;;5052647;28;20464;-75
2023/11/17 11:41:34;;;;;;;22.67;13.97;;;9.60;99.90;;;;;;5056403;28;20433;-73
2023/11/17 11:44:20;;;;;;;26.30;12.40;;;9.60;99.90;;;;;;5069125;28;20417;-75
2023/11/17 11:47:07;;;;;;;27.30;14.47;;;9.50;99.90;;;;;;5064694;28;20439;-75
2023/11/17 11:49:53;;;;;;;23.87;14.27;;;9.50;99.90;;;;;;5058628;28;20492;-75
2023/11/17 11:52:50;;;;;;;25.20;14.47;;;9.50;99.90;;;;;;5054185;28;20554;-74
2023/11/17 11:55:35;;;;;;;21.30;13.37;;;9.40;99.90;;;;;;5047717;28;20526;-74
2023/11/17 11:58:24;;;;;;;23.77;15.57;;;9.20;99.90;;;;;;5056971;28;20464;-74
2023/11/17 12:01:10;;;;;;;25.80;13.90;;;9.20;99.90;;;;;;5052485;28;20440;-74
2023/11/17 12:04:00;;;;;;;24.33;14.23;;;9.20;99.90;;;;;;5050634;28;20441;-74
2023/11/17 12:06:46;;;;;;;22.67;14.63;;;9.20;99.90;;;;;;5052696;28;20979;-74
2023/11/17 12:09:32;;;;;;;25.13;13.30;;;9.20;99.90;;;;;;5048533;28;20618;-74
2023/11/17 12:12:20;;;;;;;26.17;14.20;;;9.10;99.90;;;;;;5052217;28;20459;-74
2023/11/17 12:15:09;;;;;;;21.03;13.50;;;9.00;99.90;;;;;;5050342;28;20479;-74
2023/11/17 12:17:59;;;;;;;26.70;13.67;;;9.10;99.90;;;;;;5051802;28;20940;-74
2023/11/17 12:20:45;;;;;;;23.57;13.77;;;9.20;99.90;;;;;;5053485;28;20857;-74
2023/11/17 12:23:48;;;;;;;21.03;14.17;;;9.20;99.90;;;;;;5061043;28;20434;-74
2023/11/17 12:26:35;;;;;;;27.63;14.80;;;9.30;99.90;;;;;;5047767;28;20453;-74
2023/11/17 12:29:24;;;;;;;27.40;14.57;;;9.20;99.90;;;;;;5048430;28;20476;-74
2023/11/17 12:32:12;;;;;;;20.60;13.30;;;9.10;99.90;;;;;;5051393;28;20449;-73
2023/11/17 12:34:57;;;;;;;18.50;13.37;;;9.20;99.90;;;;;;5058249;28;21023;-73
2023/11/17 12:37:44;;;;;;;16.53;10.53;;;9.20;99.90;;;;;;5050459;28;20478;-74
2023/11/17 12:40:32;;;;;;;19.20;11.30;;;9.10;99.90;;;;;;5055174;28;20458;-74
2023/11/17 12:43:18;;;;;;;17.93;11.37;;;9.10;99.90;;;;;;5046186;28;20461;-74
2023/11/17 12:46:05;;;;;;;19.30;9.70;;;9.10;99.90;;;;;;5048970;28;20445;-74
2023/11/17 12:48:52;;;;;;;14.83;9.67;;;9.00;99.90;;;;;;5050734;28;20556;-74
2023/11/17 12:51:38;;;;;;;18.90;10.70;;;9.00;99.90;;;;;;5053443;28;20454;-74
2023/11/17 12:54:26;;;;;;;19.10;11.13;;;9.00;99.90;;;;;;5053057;28;20467;-74
2023/11/17 12:57:13;;;;;;;21.27;11.70;;;9.00;99.90;;;;;;5054126;28;20438;-74
2023/11/17 12:59:59;;;;;;;19.73;11.17;;;9.00;99.90;;;;;;5066979;28;20426;-74
2023/11/17 13:02:45;;;;;;;13.80;9.33;;;8.90;99.90;;;;;;5051474;28;20518;-74
2023/11/17 13:05:32;;;;;;;13.33;8.20;;;9.00;99.90;;;;;;5042847;28;20924;-74
2023/11/17 13:08:17;;;;;;;10.27;7.00;;;9.00;99.90;;;;;;5050360;28;20464;-74
2023/11/17 13:11:04;;;;;;;15.53;9.50;;;9.00;99.90;;;;;;5051803;28;20468;-74
2023/11/17 13:13:51;;;;;;;19.50;10.13;;;8.90;99.90;;;;;;5052050;28;20479;-74
2023/11/17 13:16:37;;;;;;;21.57;9.67;;;8.90;99.90;;;;;;5045660;28;20456;-74
2023/11/17 13:19:23;;;;;;;14.00;9.40;;;9.00;99.90;;;;;;5048250;28;20460;-74
2023/11/17 13:22:11;;;;;;;15.90;10.10;;;9.00;99.90;;;;;;5052932;28;20432;-74
2023/11/17 13:25:09;;;;;;;17.30;10.50;;;9.00;99.90;;;;;;5051716;28;21005;-74
2023/11/17 13:27:55;;;;;;;22.80;11.40;;;9.00;99.90;;;;;;5055238;28;20483;-74
2023/11/17 13:30:41;;;;;;;15.30;10.37;;;9.00;99.90;;;;;;5052882;28;20449;-74
2023/11/17 13:33:40;;;;;;;14.70;10.60;;;9.10;99.90;;;;;;5049580;28;20459;-74
2023/11/17 13:36:31;;;;;;;15.97;10.53;;;9.10;99.90;;;;;;5055361;28;20937;-74
2023/11/17 13:39:21;;;;;;;17.97;12.87;;;9.10;99.90;;;;;;5054669;28;20474;-74
2023/11/17 13:42:10;;;;;;;23.20;12.67;;;9.20;99.90;;;;;;5061327;28;20430;-73
2023/11/17 13:44:56;;;;;;;24.40;11.87;;;9.20;99.90;;;;;;5066510;28;20436;-73
2023/11/17 13:47:45;;;;;;;21.93;11.20;;;9.10;99.90;;;;;;5065172;28;20451;-73
2023/11/17 13:50:35;;;;;;;19.77;11.50;;;9.20;99.90;;;;;;5057650;28;21011;-74
2023/11/17 13:53:21;;;;;;;18.97;11.70;;;9.20;99.90;;;;;;5061330;28;20710;-74
2023/11/17 13:56:08;;;;;;;20.20;11.03;;;9.20;99.90;;;;;;5056614;28;20460;-74
2023/11/17 13:58:55;;;;;;;17.43;10.93;;;9.10;99.90;;;;;;5052602;28;21922;-74
2023/11/17 14:01:45;;;;;;;24.17;11.70;;;9.10;99.90;;;;;;5047920;28;20474;-74
2023/11/17 14:04:32;;;;;;;22.10;14.43;;;9.10;99.90;;;;;;5053686;28;20467;-74
2023/11/17 14:07:18;;;;;;;22.20;13.63;;;9.00;99.90;;;;;;5059930;28;20444;-74
2023/11/17 14:10:05;;;;;;;21.67;12.73;;;9.00;99.90;;;;;;5059458;28;20451;-73
2023/11/17 14:12:52;;;;;;;20.50;12.07;;;8.90;99.90;;;;;;5048380;28;20447;-75
2023/11/17 14:15:37;;;;;;;23.53;14.30;;;8.90;99.90;;;;;;5054528;28;20495;-73
2023/11/17 14:18:24;;;;;;;24.03;12.83;;;9.00;99.90;;;;;;5059870;28;20838;-74
2023/11/17 14:21:11;;;;;;;19.27;12.77;;;9.00;99.90;;;;;;5052600;28;20460;-74
2023/11/17 14:23:57;;;;;;;19.50;13.80;;;9.10;99.90;;;;;;5051803;28;20442;-73